createdAt,value
2022-10-21T00:01:40.909Z,13.23
2022-10-21T00:04:07.686Z,12.97
2022-10-21T00:06:34.193Z,13.83
2022-10-21T00:09:00.760Z,12.90
2022-10-21T00:11:27.263Z,12.00
2022-10-21T00:13:53.788Z,11.17
2022-10-21T00:16:20.389Z,14.23
2022-10-21T00:18:47.816Z,12.33
2022-10-21T00:21:17.835Z,11.30
2022-10-21T00:23:44.951Z,11.20
2022-10-21T00:26:12.817Z,11.70
2022-10-21T00:28:39.252Z,11.30
2022-10-21T00:31:07.346Z,13.70
2022-10-21T00:33:34.345Z,12.47
2022-10-21T00:36:04.458Z,12.63
2022-10-21T00:38:31.816Z,12.27
2022-10-21T00:40:58.411Z,10.60
2022-10-21T00:43:26.170Z,11.20
2022-10-21T00:45:55.688Z,13.10
2022-10-21T00:48:25.729Z,11.70
2022-10-21T00:50:56.344Z,13.67
2022-10-21T00:53:23.334Z,13.23
2022-10-21T00:55:56.541Z,13.27
2022-10-21T00:58:25.602Z,11.50
2022-10-21T01:00:55.309Z,15.83
2022-10-21T01:03:24.113Z,13.27
2022-10-21T01:08:23.070Z,9.73
2022-10-21T01:10:49.625Z,12.57
2022-10-21T01:13:19.929Z,13.20
2022-10-21T01:16:00.054Z,12.40
2022-10-21T01:19:11.658Z,11.20
2022-10-21T01:21:44.471Z,11.10
2022-10-21T01:24:35.396Z,11.60
2022-10-21T01:27:26.464Z,12.03
2022-10-21T01:30:08.938Z,10.97
2022-10-21T01:32:45.028Z,11.80
2022-10-21T01:35:27.262Z,10.97
2022-10-21T01:38:19.592Z,12.03
2022-10-21T01:40:52.240Z,13.57
2022-10-21T01:43:24.664Z,14.03
2022-10-21T01:45:58.139Z,13.60
2022-10-21T01:48:29.742Z,14.10
2022-10-21T01:51:02.383Z,13.43
2022-10-21T01:53:38.481Z,11.43
2022-10-21T01:56:05.100Z,12.23
2022-10-21T01:58:33.612Z,14.70
2022-10-21T02:01:01.453Z,13.20
2022-10-21T02:03:30.552Z,14.63
2022-10-21T02:05:57.271Z,13.90
2022-10-21T02:08:23.743Z,12.80
2022-10-21T02:10:53.194Z,13.67
2022-10-21T02:13:48.589Z,13.03
2022-10-21T02:16:18.135Z,12.17
2022-10-21T02:18:44.805Z,14.07
2022-10-21T02:21:19.045Z,10.80
2022-10-21T02:23:53.649Z,12.07
2022-10-21T02:26:24.922Z,12.17
2022-10-21T02:28:53.157Z,12.87
2022-10-21T02:31:25.887Z,12.67
2022-10-21T02:34:18.917Z,10.73
2022-10-21T02:36:58.136Z,10.40
2022-10-21T02:39:50.324Z,12.30
2022-10-21T02:42:22.431Z,10.63
2022-10-21T02:44:48.928Z,9.73
2022-10-21T02:47:16.606Z,10.53
2022-10-21T02:49:46.198Z,11.30
2022-10-21T02:52:12.682Z,9.43
2022-10-21T02:54:39.210Z,9.60
2022-10-21T02:57:05.644Z,9.50
2022-10-21T02:59:32.133Z,9.27
2022-10-21T03:01:58.686Z,8.53
2022-10-21T03:04:25.211Z,8.47
2022-10-21T03:06:51.636Z,10.50
2022-10-21T03:09:18.136Z,7.60
2022-10-21T03:11:44.660Z,8.10
2022-10-21T03:14:11.368Z,9.03
2022-10-21T03:16:37.956Z,7.80
2022-10-21T03:19:04.491Z,7.50
2022-10-21T03:21:31.103Z,7.30
2022-10-21T03:23:57.552Z,7.37
2022-10-21T03:26:24.435Z,7.40
2022-10-21T03:28:50.891Z,7.03
2022-10-21T03:31:17.439Z,8.37
2022-10-21T03:33:43.875Z,7.60
2022-10-21T03:36:10.360Z,7.17
2022-10-21T03:38:36.794Z,7.00
2022-10-21T03:41:03.512Z,6.77
2022-10-21T03:43:29.967Z,6.33
2022-10-21T03:45:56.556Z,6.50
2022-10-21T03:48:22.994Z,7.00
2022-10-21T03:50:49.715Z,6.97
2022-10-21T03:53:30.874Z,7.60
2022-10-21T03:56:02.855Z,7.60
2022-10-21T03:58:29.352Z,7.83
2022-10-21T04:00:56.161Z,7.60
2022-10-21T04:03:22.663Z,7.37
2022-10-21T04:05:49.115Z,6.73
2022-10-21T04:08:15.618Z,7.03
2022-10-21T04:10:42.178Z,6.90
2022-10-21T04:13:08.800Z,7.90
2022-10-21T04:15:35.301Z,6.20
2022-10-21T04:18:01.773Z,6.43
2022-10-21T04:20:28.646Z,6.80
2022-10-21T04:22:55.085Z,6.93
2022-10-21T04:25:21.516Z,6.90
2022-10-21T04:27:48.081Z,6.60
2022-10-21T04:30:14.754Z,6.20
2022-10-21T04:32:42.907Z,7.47
2022-10-21T04:35:09.400Z,6.00
2022-10-21T04:37:39.950Z,7.07
2022-10-21T04:40:08.328Z,6.90
2022-10-21T04:42:34.873Z,6.73
2022-10-21T04:45:01.339Z,6.57
2022-10-21T04:47:28.063Z,6.70
2022-10-21T04:49:54.599Z,8.20
2022-10-21T04:52:21.119Z,7.37
2022-10-21T04:54:47.581Z,7.00
2022-10-21T04:57:14.197Z,7.23
2022-10-21T04:59:40.623Z,7.97
2022-10-21T05:02:07.209Z,7.10
2022-10-21T05:04:33.662Z,6.13
2022-10-21T05:07:00.230Z,6.97
2022-10-21T05:09:26.680Z,7.00
2022-10-21T05:11:53.217Z,6.93
2022-10-21T05:14:22.551Z,6.97
2022-10-21T05:16:49.441Z,7.67
2022-10-21T05:19:15.931Z,6.83
2022-10-21T05:21:42.446Z,8.10
2022-10-21T05:24:09.761Z,6.17
2022-10-21T05:26:36.248Z,6.40
2022-10-21T05:29:02.752Z,7.37
2022-10-21T05:31:29.167Z,6.60
2022-10-21T05:33:55.634Z,6.37
2022-10-21T05:36:24.052Z,6.30
2022-10-21T05:38:51.007Z,6.90
2022-10-21T05:41:17.460Z,7.70
2022-10-21T05:43:44.460Z,6.40
2022-10-21T05:46:11.067Z,5.80
2022-10-21T05:48:37.932Z,6.57
2022-10-21T05:51:05.244Z,6.60
2022-10-21T05:53:32.124Z,5.70
2022-10-21T05:56:06.150Z,5.70
2022-10-21T05:58:34.027Z,6.13
2022-10-21T06:01:01.088Z,6.40
2022-10-21T06:03:30.400Z,6.60
2022-10-21T06:05:57.639Z,6.83
2022-10-21T06:08:24.456Z,6.37
2022-10-21T06:11:00.160Z,6.23
2022-10-21T06:13:26.712Z,6.10
2022-10-21T06:15:53.173Z,7.60
2022-10-21T06:18:19.897Z,6.80
2022-10-21T06:20:46.356Z,5.93
2022-10-21T06:23:15.248Z,6.20
2022-10-21T06:25:55.005Z,6.50
2022-10-21T06:28:21.459Z,6.70
2022-10-21T06:30:48.510Z,7.60
2022-10-21T06:33:14.952Z,7.17
2022-10-21T06:35:41.436Z,6.80
2022-10-21T06:38:07.943Z,6.10
2022-10-21T06:40:34.672Z,6.57
2022-10-21T06:43:01.494Z,6.40
2022-10-21T06:45:28.251Z,7.37
2022-10-21T06:47:54.709Z,6.03
2022-10-21T06:50:21.713Z,6.57
2022-10-21T06:52:51.036Z,6.23
2022-10-21T06:55:18.440Z,5.87
2022-10-21T06:57:44.961Z,6.10
2022-10-21T07:00:12.800Z,6.60
2022-10-21T07:02:39.754Z,5.93
2022-10-21T07:05:06.941Z,5.47
2022-10-21T07:07:33.548Z,5.70
2022-10-21T07:10:00.332Z,6.50
2022-10-21T07:12:27.606Z,6.60
2022-10-21T07:14:54.573Z,5.73
2022-10-21T07:17:21.265Z,8.07
2022-10-21T07:19:47.761Z,6.83
2022-10-21T07:22:15.193Z,6.33
2022-10-21T07:24:42.009Z,5.63
2022-10-21T07:27:08.441Z,6.27
2022-10-21T07:29:35.017Z,5.43
2022-10-21T07:32:01.591Z,6.70
2022-10-21T07:34:28.029Z,6.57
2022-10-21T07:36:54.604Z,7.33
2022-10-21T07:39:24.363Z,6.70
2022-10-21T07:41:53.386Z,6.80
2022-10-21T07:44:21.167Z,6.37
2022-10-21T07:46:48.518Z,7.77
2022-10-21T07:49:16.020Z,7.23
2022-10-21T07:51:43.392Z,6.10
2022-10-21T07:54:11.027Z,6.63
2022-10-21T07:56:46.466Z,6.87
2022-10-21T07:59:14.593Z,6.20
2022-10-21T08:01:44.948Z,6.20
2022-10-21T08:04:14.421Z,5.13
2022-10-21T08:06:41.830Z,6.27
2022-10-21T08:09:09.107Z,5.70
2022-10-21T08:11:36.014Z,6.50
2022-10-21T08:14:08.526Z,6.67
2022-10-21T08:16:35.860Z,6.53
2022-10-21T08:19:04.046Z,6.40
2022-10-21T08:21:34.136Z,6.03
2022-10-21T08:24:04.429Z,6.60
2022-10-21T08:26:31.263Z,6.70
2022-10-21T08:31:30.210Z,6.20
2022-10-21T08:33:56.771Z,5.97
2022-10-21T08:36:25.023Z,5.23
2022-10-21T08:38:53.083Z,5.87
2022-10-21T08:41:58.616Z,6.30
2022-10-21T08:44:35.752Z,5.80
2022-10-21T08:49:48.139Z,6.10
2022-10-21T08:52:29.000Z,5.50
2022-10-21T08:54:59.837Z,6.20
2022-10-21T08:57:26.807Z,6.80
2022-10-21T08:59:53.972Z,6.27
2022-10-21T09:02:47.837Z,6.03
2022-10-21T09:05:21.564Z,5.80
2022-10-21T09:08:03.103Z,5.90
2022-10-21T09:11:05.127Z,6.43
2022-10-21T09:13:31.582Z,7.00
2022-10-21T09:16:14.608Z,6.17
2022-10-21T09:18:51.139Z,6.27
2022-10-21T09:21:33.209Z,5.47
2022-10-21T09:24:06.994Z,6.40
2022-10-21T09:26:41.514Z,5.53
2022-10-21T09:29:20.743Z,6.27
2022-10-21T09:31:53.103Z,5.57
2022-10-21T09:34:40.443Z,5.67
2022-10-21T09:37:13.897Z,5.33
2022-10-21T09:39:44.136Z,6.20
2022-10-21T09:42:23.050Z,6.27
2022-10-21T09:44:59.008Z,7.87
2022-10-21T09:47:25.612Z,5.30
2022-10-21T09:50:12.245Z,6.43
2022-10-21T09:52:38.999Z,6.00
2022-10-21T09:55:06.724Z,7.30
2022-10-21T09:57:44.494Z,6.07
2022-10-21T10:00:13.776Z,5.30
2022-10-21T10:02:43.239Z,6.10
2022-10-21T10:05:38.791Z,5.60
2022-10-21T10:08:29.684Z,4.90
2022-10-21T10:11:13.441Z,5.50
2022-10-21T10:13:41.230Z,5.63
2022-10-21T10:16:22.736Z,5.10
2022-10-21T10:18:51.403Z,5.10
2022-10-21T10:21:19.778Z,5.20
2022-10-21T10:23:47.983Z,6.17
2022-10-21T10:26:24.502Z,5.07
2022-10-21T10:28:54.378Z,5.63
2022-10-21T10:31:26.902Z,5.47
2022-10-21T10:34:04.058Z,5.37
2022-10-21T10:36:40.226Z,5.57
2022-10-21T10:39:09.453Z,6.33
2022-10-21T10:41:38.994Z,6.03
2022-10-21T10:44:12.572Z,5.20
2022-10-21T10:46:39.778Z,5.23
2022-10-21T10:49:15.586Z,4.93
2022-10-21T10:51:45.966Z,5.10
2022-10-21T10:54:20.497Z,5.90
2022-10-21T10:56:56.204Z,5.47
2022-10-21T10:59:36.119Z,5.30
2022-10-21T11:02:09.013Z,5.40
2022-10-21T11:07:29.411Z,5.07
2022-10-21T11:09:59.317Z,5.90
2022-10-21T11:12:26.873Z,4.97
2022-10-21T11:14:58.011Z,5.40
2022-10-21T11:17:38.664Z,4.27
2022-10-21T11:21:10.124Z,5.30
2022-10-21T11:23:48.971Z,6.20
2022-10-21T11:26:44.019Z,5.70
2022-10-21T11:29:15.870Z,6.67
2022-10-21T11:32:11.569Z,5.80
2022-10-21T11:34:54.014Z,6.20
2022-10-21T11:37:32.522Z,6.17
2022-10-21T11:40:04.802Z,5.50
2022-10-21T11:42:44.122Z,5.97
2022-10-21T11:45:25.584Z,5.23
2022-10-21T11:48:16.684Z,6.03
2022-10-21T11:51:08.819Z,5.70
2022-10-21T11:53:49.644Z,7.00
2022-10-21T11:56:26.112Z,9.40
2022-10-21T12:02:00.749Z,6.20
2022-10-21T12:04:36.411Z,13.27
2022-10-21T12:07:19.487Z,13.73
2022-10-21T12:10:12.723Z,7.80
2022-10-21T12:12:42.536Z,7.60
2022-10-21T12:15:33.396Z,10.40
2022-10-21T12:18:02.016Z,8.93
2022-10-21T12:20:28.876Z,10.77
2022-10-21T12:23:00.520Z,11.63
2022-10-21T12:25:42.958Z,11.93
2022-10-21T12:28:22.332Z,11.87
2022-10-21T12:31:05.026Z,11.70
2022-10-21T12:33:38.404Z,11.50
2022-10-21T12:36:23.107Z,9.47
2022-10-21T12:38:51.325Z,10.50
2022-10-21T12:41:24.407Z,10.13
2022-10-21T12:44:00.823Z,8.03
2022-10-21T12:46:40.199Z,7.93
2022-10-21T12:49:19.444Z,7.90
2022-10-21T12:51:52.845Z,7.10
2022-10-21T12:54:24.279Z,8.17
2022-10-21T12:57:03.064Z,8.17
2022-10-21T12:59:36.199Z,8.00
2022-10-21T13:02:28.235Z,8.30
2022-10-21T13:04:56.328Z,9.33
2022-10-21T13:07:33.220Z,7.90
2022-10-21T13:09:59.590Z,8.80
2022-10-21T13:12:29.310Z,8.33
2022-10-21T13:15:22.814Z,9.50
2022-10-21T13:17:56.868Z,8.83
2022-10-21T13:20:23.445Z,9.87
2022-10-21T13:23:01.811Z,7.60
2022-10-21T13:25:32.967Z,7.90
2022-10-21T13:28:14.831Z,7.73
2022-10-21T13:30:50.664Z,8.23
2022-10-21T13:33:21.127Z,7.90
2022-10-21T13:35:53.437Z,7.90
2022-10-21T13:38:27.175Z,7.90
2022-10-21T13:40:58.703Z,7.23
2022-10-21T13:43:28.922Z,7.80
2022-10-21T13:46:14.576Z,9.00
2022-10-21T13:48:46.408Z,8.50
2022-10-21T13:51:25.355Z,8.43
2022-10-21T13:54:10.068Z,8.10
2022-10-21T13:56:38.232Z,11.53
2022-10-21T13:59:06.084Z,9.17
2022-10-21T14:01:48.415Z,9.07
2022-10-21T14:04:17.756Z,8.27
2022-10-21T14:06:47.167Z,9.00
2022-10-21T14:09:19.639Z,8.50
2022-10-21T14:11:50.047Z,9.80
2022-10-21T14:14:19.534Z,7.77
2022-10-21T14:16:50.426Z,7.37
2022-10-21T14:19:20.138Z,8.10
2022-10-21T14:21:48.283Z,7.77
2022-10-21T14:24:31.487Z,9.00
2022-10-21T14:26:58.199Z,9.27
2022-10-21T14:29:29.353Z,8.00
2022-10-21T14:31:57.171Z,7.73
2022-10-21T14:34:25.859Z,7.57
2022-10-21T14:37:11.904Z,6.23
2022-10-21T14:39:39.632Z,8.27
2022-10-21T14:42:17.452Z,8.03
2022-10-21T14:44:48.923Z,12.90
2022-10-21T14:47:24.182Z,8.73
2022-10-21T14:49:52.837Z,9.30
2022-10-21T14:52:21.515Z,8.87
2022-10-21T14:54:53.184Z,8.47
2022-10-21T14:57:28.469Z,7.97
2022-10-21T14:59:55.394Z,7.43
2022-10-21T15:02:32.076Z,9.63
2022-10-21T15:05:01.217Z,7.73
2022-10-21T15:07:36.876Z,11.10
2022-10-21T15:10:03.278Z,9.97
2022-10-21T15:12:39.715Z,8.73
2022-10-21T15:15:41.390Z,10.03
2022-10-21T15:18:16.590Z,7.80
2022-10-21T15:20:59.165Z,9.27
2022-10-21T15:23:43.172Z,8.20
2022-10-21T15:26:18.666Z,11.30
2022-10-21T15:28:45.394Z,11.13
2022-10-21T15:31:19.620Z,9.20
2022-10-21T15:33:48.435Z,8.90
2022-10-21T15:36:16.046Z,8.17
2022-10-21T15:38:48.877Z,8.70
2022-10-21T15:41:21.067Z,10.47
2022-10-21T15:44:03.743Z,10.50
2022-10-21T15:46:33.238Z,8.23
2022-10-21T15:49:06.347Z,8.00
2022-10-21T15:51:33.563Z,8.93
2022-10-21T15:54:00.133Z,8.20
2022-10-21T15:56:26.986Z,8.43
2022-10-21T15:58:53.461Z,10.67
2022-10-21T16:01:19.960Z,11.27
2022-10-21T16:03:46.690Z,9.17
2022-10-21T16:06:16.680Z,9.47
2022-10-21T16:08:43.387Z,8.37
2022-10-21T16:11:16.739Z,7.40
2022-10-21T16:13:48.705Z,7.80
2022-10-21T16:16:25.081Z,8.80
2022-10-21T16:18:52.367Z,10.23
2022-10-21T16:21:20.068Z,12.10
2022-10-21T16:23:46.655Z,12.20
2022-10-21T16:26:21.911Z,12.00
2022-10-21T16:28:53.297Z,12.10
2022-10-21T16:31:19.841Z,11.63
2022-10-21T16:33:46.276Z,11.07
2022-10-21T16:36:16.641Z,10.30
2022-10-21T16:38:45.043Z,8.87
2022-10-21T16:41:13.161Z,10.07
2022-10-21T16:43:39.826Z,8.53
2022-10-21T16:46:09.327Z,9.27
2022-10-21T16:48:35.780Z,10.00
2022-10-21T16:51:02.259Z,10.50
2022-10-21T16:53:29.321Z,10.37
2022-10-21T16:55:55.913Z,10.33
2022-10-21T16:58:22.400Z,10.93
2022-10-21T17:00:50.155Z,9.90
2022-10-21T17:03:16.663Z,9.70
2022-10-21T17:05:43.241Z,9.13
2022-10-21T17:08:09.800Z,8.73
2022-10-21T17:10:36.257Z,9.57
2022-10-21T17:13:02.756Z,9.53
2022-10-21T17:15:29.238Z,8.13
2022-10-21T17:17:55.779Z,7.50
2022-10-21T17:20:22.254Z,8.67
2022-10-21T17:22:48.758Z,8.93
2022-10-21T17:25:15.239Z,8.80
2022-10-21T17:27:42.203Z,8.33
2022-10-21T17:30:09.486Z,9.90
2022-10-21T17:32:36.086Z,10.93
2022-10-21T17:35:02.603Z,10.60
2022-10-21T17:37:29.192Z,8.43
2022-10-21T17:39:55.642Z,9.27
2022-10-21T17:42:22.282Z,8.37
2022-10-21T17:44:49.531Z,8.87
2022-10-21T17:47:16.120Z,9.23
2022-10-21T17:49:42.628Z,8.90
2022-10-21T17:52:09.555Z,9.50
2022-10-21T17:54:36.409Z,8.40
2022-10-21T17:57:03.334Z,8.40
2022-10-21T17:59:31.185Z,9.30
2022-10-21T18:01:57.631Z,9.40
2022-10-21T18:04:24.133Z,9.50
2022-10-21T18:06:50.653Z,10.30
2022-10-21T18:09:17.344Z,9.80
2022-10-21T18:11:44.002Z,8.63
2022-10-21T18:14:10.513Z,8.10
2022-10-21T18:16:37.038Z,9.30
2022-10-21T18:19:03.782Z,9.60
2022-10-21T18:21:30.931Z,9.03
2022-10-21T18:23:57.802Z,10.57
2022-10-21T18:26:29.365Z,9.70
2022-10-21T18:29:01.067Z,10.40
2022-10-21T18:31:30.368Z,10.40
2022-10-21T18:33:57.951Z,9.47
2022-10-21T18:36:25.401Z,9.80
2022-10-21T18:38:51.949Z,11.00
2022-10-21T18:41:20.549Z,11.80
2022-10-21T18:43:53.057Z,12.33
2022-10-21T18:46:20.264Z,11.30
2022-10-21T18:48:47.545Z,10.00
2022-10-21T18:51:19.015Z,9.37
2022-10-21T18:53:49.800Z,8.20
2022-10-21T18:56:18.504Z,9.03
2022-10-21T18:58:45.451Z,8.80
2022-10-21T19:01:13.111Z,8.60
2022-10-21T19:03:39.595Z,8.20
2022-10-21T19:06:28.759Z,8.93
2022-10-21T19:08:55.639Z,8.43
2022-10-21T19:11:22.154Z,8.40
2022-10-21T19:13:48.662Z,8.00
2022-10-21T19:16:15.139Z,8.07
2022-10-21T19:18:41.689Z,9.00
2022-10-21T19:21:08.332Z,9.20
2022-10-21T19:23:34.755Z,8.17
2022-10-21T19:26:03.357Z,9.10
2022-10-21T19:28:30.711Z,8.97
2022-10-21T19:30:57.233Z,7.60
2022-10-21T19:33:23.704Z,9.23
2022-10-21T19:35:50.171Z,9.17
2022-10-21T19:38:26.204Z,9.77
2022-10-21T19:40:59.265Z,8.90
2022-10-21T19:43:26.783Z,12.70
2022-10-21T19:45:53.907Z,10.07
2022-10-21T19:48:21.061Z,10.17
2022-10-21T19:50:48.757Z,10.73
2022-10-21T19:53:16.265Z,10.40
2022-10-21T19:55:42.857Z,8.60
2022-10-21T19:58:09.371Z,8.77
2022-10-21T20:00:36.625Z,9.50
2022-10-21T20:03:04.592Z,10.90
2022-10-21T20:05:34.339Z,10.40
2022-10-21T20:08:00.770Z,8.50
2022-10-21T20:10:28.097Z,8.63
2022-10-21T20:12:54.580Z,9.40
2022-10-21T20:15:21.162Z,11.67
2022-10-21T20:17:47.797Z,13.33
2022-10-21T20:20:14.294Z,10.80
2022-10-21T20:22:41.069Z,13.70
2022-10-21T20:25:08.652Z,13.33
2022-10-21T20:27:35.102Z,13.03
2022-10-21T20:30:01.940Z,11.53
2022-10-21T20:32:31.766Z,11.77
2022-10-21T20:34:58.445Z,10.07
2022-10-21T20:37:24.955Z,10.33
2022-10-21T20:39:51.436Z,9.40
2022-10-21T20:42:17.905Z,9.10
2022-10-21T20:47:11.872Z,9.03
2022-10-21T20:49:38.335Z,8.20
2022-10-21T20:52:04.904Z,7.90
2022-10-21T20:54:33.354Z,7.67
2022-10-21T20:56:59.978Z,6.93
2022-10-21T20:59:26.419Z,7.43
2022-10-21T21:01:52.962Z,6.33
2022-10-21T21:04:21.077Z,5.83
2022-10-21T21:06:49.505Z,5.83
2022-10-21T21:12:04.366Z,5.03
2022-10-21T21:14:31.372Z,5.03
2022-10-21T21:16:57.907Z,8.23
2022-10-21T21:19:25.820Z,5.80
2022-10-21T21:21:52.496Z,6.57
2022-10-21T21:24:19.524Z,6.10
2022-10-21T21:26:46.120Z,5.20
2022-10-21T21:29:13.414Z,5.33
2022-10-21T21:31:40.049Z,5.20
2022-10-21T21:34:07.533Z,5.27
2022-10-21T21:36:34.799Z,4.20
2022-10-21T21:39:01.398Z,4.60
2022-10-21T21:41:27.976Z,7.23
2022-10-21T21:43:56.671Z,4.70
2022-10-21T21:46:24.233Z,5.23
2022-10-21T21:49:02.314Z,4.67
2022-10-21T21:51:31.845Z,6.40
2022-10-21T21:53:58.787Z,5.63
2022-10-21T21:56:26.667Z,5.87
2022-10-21T21:58:57.874Z,6.20
2022-10-21T22:01:26.879Z,4.87
2022-10-21T22:03:54.169Z,4.70
2022-10-21T22:06:22.782Z,4.10
2022-10-21T22:08:50.486Z,4.40
2022-10-21T22:11:22.502Z,5.07
2022-10-21T22:13:49.261Z,5.00
2022-10-21T22:16:16.240Z,4.37
2022-10-21T22:18:43.264Z,4.67
2022-10-21T22:21:12.502Z,4.90
2022-10-21T22:23:39.301Z,4.13
2022-10-21T22:26:06.496Z,4.53
2022-10-21T22:28:33.170Z,4.47
2022-10-21T22:31:05.993Z,4.60
2022-10-21T22:33:33.030Z,4.87
2022-10-21T22:35:59.933Z,3.90
2022-10-21T22:38:26.968Z,4.77
2022-10-21T22:40:54.136Z,4.90
2022-10-21T22:43:20.655Z,4.40
2022-10-21T22:45:48.175Z,4.17
2022-10-21T22:48:15.406Z,4.27
2022-10-21T22:50:42.078Z,4.57
2022-10-21T22:53:09.359Z,4.10
2022-10-21T22:55:36.019Z,4.40
2022-10-21T22:58:02.497Z,4.13
2022-10-21T23:00:29.007Z,3.60
2022-10-21T23:02:55.753Z,4.60
2022-10-21T23:05:22.952Z,4.93
2022-10-21T23:07:49.917Z,4.50
2022-10-21T23:10:16.413Z,5.40
2022-10-21T23:12:43.291Z,4.40
2022-10-21T23:15:10.560Z,4.50
2022-10-21T23:17:37.136Z,4.43
2022-10-21T23:20:04.100Z,4.50
2022-10-21T23:22:30.893Z,5.00
2022-10-21T23:24:57.395Z,3.90
2022-10-21T23:27:23.838Z,4.47
2022-10-21T23:29:50.408Z,3.43
2022-10-21T23:32:16.859Z,4.00
2022-10-21T23:34:43.329Z,4.10
2022-10-21T23:37:09.861Z,3.83
2022-10-21T23:39:36.394Z,3.93
2022-10-21T23:42:02.943Z,3.87
2022-10-21T23:44:29.472Z,3.60
2022-10-21T23:46:56.845Z,4.33
2022-10-21T23:49:24.156Z,4.00
2022-10-21T23:51:50.586Z,3.90
2022-10-21T23:54:17.146Z,3.70
2022-10-21T23:56:43.592Z,4.00
2022-10-21T23:59:10.050Z,3.67
